Time;durP1;ratioP1;P1;durP2;ratioP2;P2;SDS_P1;SDS_P2;PMS_P1;PMS_P2;Temp;Humidity;BMP_temperature;BMP_pressure;BME280_temperature;BME280_humidity;BME280_pressure;Samples;Min_cycle;Max_cycle;Signal;HPM_P1;HPM_P2
2023/04/25 00:00:52;;;;;;;2.47;2.10;;;;;;;20.78;54.30;96805.25;4927553;29;20213;-29
2023/04/25 00:03:19;;;;;;;1.70;1.60;;;;;;;20.78;54.30;96808.66;4925586;29;20562;-30
2023/04/25 00:05:45;;;;;;;2.00;1.80;;;;;;;20.78;54.11;96808.66;4916218;29;20224;-30
2023/04/25 00:08:12;;;;;;;2.17;1.77;;;;;;;20.77;54.23;96809.50;4893042;29;20236;-32
2023/04/25 00:10:39;;;;;;;1.87;1.70;;;;;;;20.78;54.23;96816.31;4906506;29;20237;-37
2023/04/25 00:13:06;;;;;;;2.00;1.80;;;;;;;20.78;54.66;96811.22;4920569;29;20219;-30
2023/04/25 00:15:32;;;;;;;1.87;1.70;;;;;;;20.75;54.16;96811.16;4931353;29;20209;-28
2023/04/25 00:17:59;;;;;;;1.97;1.77;;;;;;;20.77;53.92;96817.16;4920228;29;20268;-30
2023/04/25 00:20:25;;;;;;;2.07;1.90;;;;;;;20.76;54.01;96810.34;4915193;29;20213;-30
2023/04/25 00:22:55;;;;;;;2.10;1.90;;;;;;;20.77;54.35;96811.19;4920494;29;20303;-30
2023/04/25 00:25:22;;;;;;;1.80;1.70;;;;;;;20.73;53.92;96812.81;4917950;29;20268;-29
2023/04/25 00:27:48;;;;;;;1.70;1.60;;;;;;;20.78;54.16;96807.81;4908720;29;20233;-29
2023/04/25 00:30:15;;;;;;;2.07;1.80;;;;;;;20.78;54.01;96813.75;4927933;29;20228;-29
2023/04/25 00:32:41;;;;;;;1.90;1.80;;;;;;;20.78;54.03;96802.72;4921905;29;20215;-30
2023/04/25 00:35:09;;;;;;;2.17;1.80;;;;;;;20.76;54.07;96810.34;4925804;29;20212;-30
2023/04/25 00:37:35;;;;;;;2.03;1.80;;;;;;;20.73;54.75;96807.72;4918496;29;20670;-28
2023/04/25 00:40:02;;;;;;;2.27;2.07;;;;;;;20.77;54.14;96812.03;4916857;29;20486;-30
2023/04/25 00:42:29;;;;;;;1.93;1.70;;;;;;;20.74;54.23;96811.97;4913347;29;20212;-27
2023/04/25 00:44:56;;;;;;;2.03;1.87;;;;;;;20.75;53.88;96805.19;4902804;29;20623;-27
2023/04/25 00:47:22;;;;;;;2.03;1.83;;;;;;;20.75;53.88;96834.13;4906705;29;20210;-24
2023/04/25 00:49:49;;;;;;;1.80;1.70;;;;;;;20.75;54.26;96810.31;4918633;29;20264;-29
2023/04/25 00:52:15;;;;;;;1.83;1.70;;;;;;;20.75;54.11;96807.75;4920683;29;20603;-27
2023/04/25 00:54:42;;;;;;;1.80;1.70;;;;;;;20.70;54.13;96801.69;4913030;29;20209;-25
2023/04/25 00:57:08;;;;;;;1.77;1.67;;;;;;;20.76;54.08;96812.00;4903823;29;20225;-27
2023/04/25 00:59:35;;;;;;;2.00;1.70;;;;;;;20.74;54.12;96804.31;4897073;29;20308;-28
2023/04/25 01:02:01;;;;;;;1.73;1.63;;;;;;;20.71;54.06;96798.28;4881714;29;20206;-27
2023/04/25 01:04:28;;;;;;;1.90;1.70;;;;;;;20.75;53.97;96807.75;4916558;29;20643;-27
2023/04/25 01:06:55;;;;;;;2.47;1.60;;;;;;;20.75;54.18;96802.66;4923776;29;20268;-27
2023/04/25 01:09:22;;;;;;;2.00;1.80;;;;;;;20.73;54.10;96804.28;4899025;29;20228;-27
2023/04/25 01:11:49;;;;;;;2.00;1.80;;;;;;;20.75;54.14;96803.47;4914382;29;20212;-27
2023/04/25 01:14:16;;;;;;;1.90;1.67;;;;;;;20.74;54.14;96799.22;4916728;29;20309;-26
2023/04/25 01:16:42;;;;;;;1.70;1.60;;;;;;;20.75;54.27;96800.94;4916222;29;20525;-27
2023/04/25 01:19:12;;;;;;;2.00;1.80;;;;;;;20.75;54.15;96800.09;4920328;29;20270;-27
2023/04/25 01:21:39;;;;;;;1.70;1.60;;;;;;;20.75;54.44;96807.75;4919137;29;20217;-27
2023/04/25 01:24:06;;;;;;;1.80;1.70;;;;;;;20.73;54.16;96794.94;4905536;29;20224;-27
2023/04/25 01:26:32;;;;;;;2.80;1.83;;;;;;;20.73;54.30;96797.50;4889177;29;20249;-27
2023/04/25 01:28:59;;;;;;;1.80;1.70;;;;;;;20.75;54.00;96802.66;4894318;29;20682;-29
2023/04/25 01:35:43;;;;;;;1.70;1.60;;;;;;;20.74;54.19;96794.09;4917166;29;20196;-25
2023/04/25 01:38:11;;;;;;;1.80;1.70;;;;;;;20.74;54.14;96794.09;4920088;29;20230;-27
2023/04/25 01:40:38;;;;;;;2.03;1.80;;;;;;;20.75;54.13;96798.38;4907537;29;20216;-27
2023/04/25 01:43:05;;;;;;;1.70;1.60;;;;;;;20.74;54.02;96789.00;4892492;29;20210;-27
2023/04/25 01:45:32;;;;;;;1.80;1.70;;;;;;;20.74;53.85;96788.13;4930447;29;20197;-27
2023/04/25 01:47:59;;;;;;;2.13;1.97;;;;;;;20.74;54.06;96789.00;4922396;29;20218;-27
2023/04/25 01:50:26;;;;;;;2.03;1.83;;;;;;;20.75;53.79;96789.88;4925628;29;20206;-25
2023/04/25 01:52:52;;;;;;;2.07;1.93;;;;;;;20.71;54.02;96780.41;4918187;29;20201;-27
2023/04/25 01:55:19;;;;;;;1.53;1.43;;;;;;;20.74;53.83;96791.56;4903902;29;20210;-26
2023/04/25 01:57:46;;;;;;;2.10;1.87;;;;;;;20.74;54.06;96794.09;4924304;29;20221;-27
2023/04/25 02:00:12;;;;;;;1.80;1.70;;;;;;;20.74;53.97;96798.34;4924567;29;20213;-27
2023/04/25 02:02:39;;;;;;;1.90;1.70;;;;;;;20.75;53.74;96789.88;4925534;29;20285;-27
2023/04/25 02:05:06;;;;;;;1.70;1.60;;;;;;;20.74;53.91;96785.56;4922702;29;20255;-27
2023/04/25 02:07:33;;;;;;;1.77;1.67;;;;;;;20.74;54.18;96781.34;4924025;29;20408;-27
2023/04/25 02:10:00;;;;;;;2.13;1.93;;;;;;;20.74;53.99;96781.34;4915320;29;20201;-26
2023/04/25 02:12:27;;;;;;;1.70;1.60;;;;;;;20.74;53.92;96776.25;4923621;29;20312;-27
2023/04/25 02:14:54;;;;;;;1.77;1.67;;;;;;;20.75;53.57;96784.78;4919375;29;20641;-26
2023/04/25 02:17:21;;;;;;;1.87;1.77;;;;;;;20.74;54.08;96773.69;4927031;29;20225;-27
2023/04/25 02:19:48;;;;;;;1.63;1.53;;;;;;;20.75;54.02;96787.31;4914514;29;20223;-27
2023/04/25 02:22:14;;;;;;;1.63;1.53;;;;;;;20.74;53.85;96775.38;4929059;29;20232;-26
2023/04/25 02:24:41;;;;;;;1.80;1.70;;;;;;;20.74;53.90;96776.25;4923533;29;20209;-27
2023/04/25 02:27:07;;;;;;;1.60;1.50;;;;;;;20.74;54.24;96778.78;4925814;29;20582;-27
2023/04/25 02:29:34;;;;;;;1.80;1.70;;;;;;;20.75;53.87;96787.31;4921021;29;20296;-27
2023/04/25 02:32:00;;;;;;;1.73;1.63;;;;;;;20.74;53.86;96781.34;4927378;29;20296;-25
2023/04/25 02:34:27;;;;;;;1.77;1.67;;;;;;;20.74;53.95;96778.78;4924917;29;20219;-26
2023/04/25 02:36:54;;;;;;;1.53;1.43;;;;;;;20.74;54.03;96775.38;4917404;29;20205;-27
2023/04/25 02:39:22;;;;;;;1.70;1.60;;;;;;;20.75;53.57;96772.00;4923231;29;20229;-26
2023/04/25 02:41:48;;;;;;;1.60;1.50;;;;;;;20.74;54.08;96771.13;4931303;29;20297;-27
2023/04/25 02:44:15;;;;;;;1.97;1.60;;;;;;;20.74;53.93;96767.69;4929450;29;20212;-27
2023/04/25 02:46:41;;;;;;;1.80;1.70;;;;;;;20.73;53.74;96761.75;4926822;29;20228;-26
2023/04/25 02:49:08;;;;;;;1.53;1.43;;;;;;;20.74;54.16;96762.59;4926763;29;20283;-27
2023/04/25 02:51:35;;;;;;;1.97;1.43;;;;;;;20.74;54.06;96768.56;4918215;29;20603;-27
2023/04/25 02:54:01;;;;;;;1.70;1.60;;;;;;;20.69;53.84;96754.84;4903779;29;20579;-27
2023/04/25 02:56:28;;;;;;;1.60;1.50;;;;;;;20.74;53.95;96760.03;4916345;29;20202;-26
2023/04/25 02:58:54;;;;;;;1.73;1.60;;;;;;;20.74;53.91;96763.47;4921290;29;20251;-27
2023/04/25 03:01:21;;;;;;;1.80;1.70;;;;;;;20.74;54.35;96762.59;4914516;29;20210;-26
2023/04/25 03:03:48;;;;;;;1.67;1.57;;;;;;;20.74;53.86;96775.38;4917390;29;20202;-26
2023/04/25 03:06:15;;;;;;;1.80;1.70;;;;;;;20.74;53.57;96755.81;4915979;29;20232;-27
2023/04/25 03:08:42;;;;;;;1.80;1.70;;;;;;;20.73;54.10;96753.22;4921753;29;20218;-27
2023/04/25 03:11:09;;;;;;;1.60;1.50;;;;;;;20.74;53.95;96762.59;4915419;29;20216;-27
2023/04/25 03:13:36;;;;;;;1.70;1.60;;;;;;;20.73;53.68;96746.44;4915119;29;20280;-27
2023/04/25 03:16:02;;;;;;;1.60;1.50;;;;;;;20.73;53.70;96759.22;4920265;29;20305;-27
2023/04/25 03:18:29;;;;;;;1.90;1.80;;;;;;;20.73;53.70;96753.22;4918079;29;20236;-27
2023/04/25 03:20:55;;;;;;;1.60;1.50;;;;;;;20.72;53.59;96754.91;4919709;29;20229;-27
2023/04/25 03:23:22;;;;;;;1.50;1.40;;;;;;;20.73;53.81;96761.75;4921414;29;20213;-27
2023/04/25 03:25:49;;;;;;;1.57;1.47;;;;;;;20.72;54.09;96759.16;4917982;29;20209;-27
2023/04/25 03:28:15;;;;;;;1.43;1.33;;;;;;;20.72;53.82;96765.13;4919994;29;20585;-27
2023/04/25 03:30:42;;;;;;;1.60;1.50;;;;;;;20.72;53.93;96757.47;4914254;29;20206;-27
2023/04/25 03:33:08;;;;;;;1.80;1.70;;;;;;;20.73;53.98;96753.22;4915678;29;20256;-27
2023/04/25 03:35:35;;;;;;;1.73;1.63;;;;;;;20.72;53.91;96754.91;4914979;29;20265;-27
2023/04/25 03:38:01;;;;;;;1.80;1.53;;;;;;;20.72;53.40;96743.84;4914953;29;20268;-27
2023/04/25 03:40:28;;;;;;;1.43;1.33;;;;;;;20.72;53.86;96747.25;4915809;29;20201;-25
2023/04/25 03:42:55;;;;;;;1.60;1.50;;;;;;;20.72;54.25;96748.97;4915732;29;20289;-27
2023/04/25 03:45:21;;;;;;;1.90;1.80;;;;;;;20.73;54.13;96746.44;4914991;29;20259;-25
2023/04/25 03:47:48;;;;;;;1.70;1.60;;;;;;;20.73;53.81;96743.88;4920836;29;20244;-27
2023/04/25 03:50:14;;;;;;;1.70;1.60;;;;;;;20.64;53.57;96727.50;4915425;29;20672;-27
2023/04/25 03:52:41;;;;;;;1.57;1.47;;;;;;;20.72;53.82;96744.69;4916048;29;20213;-27
2023/04/25 03:55:08;;;;;;;1.60;1.50;;;;;;;20.73;53.84;96749.00;4917229;29;20205;-27
2023/04/25 03:57:35;;;;;;;1.80;1.70;;;;;;;20.74;53.69;96743.03;4918278;29;20592;-27
2023/04/25 04:00:01;;;;;;;1.53;1.43;;;;;;;20.74;53.98;96734.50;4921285;29;20309;-25
2023/04/25 04:02:28;;;;;;;1.70;1.60;;;;;;;20.75;53.80;96738.81;4917572;29;20232;-27
2023/04/25 04:04:56;;;;;;;2.00;1.90;;;;;;;20.74;53.55;96734.50;4915428;29;20209;-28
2023/04/25 04:07:23;;;;;;;1.80;1.70;;;;;;;20.75;53.56;96738.81;4910816;29;20260;-26
2023/04/25 04:09:49;;;;;;;1.70;1.60;;;;;;;20.74;54.06;96768.56;4918534;29;20479;-27
2023/04/25 04:12:16;;;;;;;1.60;1.50;;;;;;;20.75;53.47;96749.03;4910246;29;20261;-27
2023/04/25 04:14:43;;;;;;;1.70;1.60;;;;;;;20.75;53.91;96752.41;4920686;29;20202;-27
2023/04/25 04:17:09;;;;;;;1.53;1.43;;;;;;;20.75;54.08;96752.41;4897882;29;20233;-27
2023/04/25 04:19:36;;;;;;;1.70;1.60;;;;;;;20.75;54.16;96746.47;4914509;29;20716;-26
2023/04/25 04:22:03;;;;;;;1.77;1.67;;;;;;;20.76;53.53;96750.72;4914690;29;20293;-26
2023/04/25 04:24:29;;;;;;;1.60;1.50;;;;;;;20.75;53.36;96746.47;4911206;29;20207;-27
2023/04/25 04:26:56;;;;;;;1.57;1.47;;;;;;;20.75;54.04;96747.31;4914435;29;20209;-27
2023/04/25 04:29:23;;;;;;;1.60;1.50;;;;;;;20.76;53.96;96748.19;4914565;29;20233;-27
2023/04/25 04:31:50;;;;;;;1.83;1.73;;;;;;;20.75;53.59;96756.69;4904931;29;20233;-27
2023/04/25 04:34:18;;;;;;;1.70;1.60;;;;;;;20.77;53.74;96753.31;4899460;29;20214;-26
2023/04/25 04:36:48;;;;;;;1.90;1.80;;;;;;;20.78;53.81;96749.94;4920520;29;20202;-27
2023/04/25 04:39:14;;;;;;;1.90;1.70;;;;;;;20.78;53.22;96749.94;4916186;29;20259;-25
2023/04/25 04:41:42;;;;;;;1.90;1.50;;;;;;;20.78;53.87;96757.59;4920053;29;20624;-27
2023/04/25 04:44:09;;;;;;;1.63;1.53;;;;;;;20.79;53.53;96756.78;4914836;29;20214;-27
2023/04/25 04:46:41;;;;;;;1.63;1.50;;;;;;;20.80;53.30;96762.72;4914513;29;20285;-27
2023/04/25 04:49:09;;;;;;;1.70;1.60;;;;;;;20.78;53.56;96757.59;4916309;29;20225;-27
2023/04/25 04:51:36;;;;;;;1.70;1.60;;;;;;;20.81;53.76;96759.34;4915656;29;20234;-29
2023/04/25 04:54:03;;;;;;;2.33;1.70;;;;;;;20.81;53.61;96769.56;4912633;29;20236;-28
2023/04/25 04:56:30;;;;;;;1.63;1.53;;;;;;;20.80;53.61;96771.25;4911288;29;20284;-30
2023/04/25 04:58:57;;;;;;;1.70;1.60;;;;;;;20.81;53.41;96764.47;4907467;29;20225;-35
2023/04/25 05:01:25;;;;;;;1.63;1.53;;;;;;;20.80;53.52;96766.16;4922404;29;20198;-29
2023/04/25 05:03:52;;;;;;;2.77;1.60;;;;;;;20.80;53.27;96762.72;4924727;29;20210;-29
2023/04/25 05:06:20;;;;;;;1.63;1.53;;;;;;;20.80;53.54;96762.72;4920972;29;20300;-29
2023/04/25 05:08:47;;;;;;;1.93;1.60;;;;;;;20.81;53.42;96751.69;4917629;29;20217;-29
2023/04/25 05:11:13;;;;;;;1.63;1.53;;;;;;;20.80;53.42;96761.03;4919554;29;20745;-30
2023/04/25 05:13:40;;;;;;;1.97;1.87;;;;;;;20.79;53.38;96758.47;4925216;29;20233;-30
2023/04/25 05:16:06;;;;;;;2.17;1.80;;;;;;;20.79;53.20;96754.22;4918493;29;20213;-28
2023/04/25 05:18:33;;;;;;;1.70;1.60;;;;;;;20.79;53.00;96763.56;4918324;29;20225;-30
2023/04/25 05:20:59;;;;;;;1.60;1.50;;;;;;;20.79;53.12;96758.47;4919415;29;20318;-30
2023/04/25 05:23:27;;;;;;;2.03;1.80;;;;;;;20.78;52.75;96754.19;4923497;29;20206;-30
2023/04/25 05:25:54;;;;;;;2.33;1.73;;;;;;;20.79;53.09;96755.91;4917372;29;20212;-30
2023/04/25 05:28:21;;;;;;;2.17;1.93;;;;;;;20.78;52.77;96757.59;4937947;23;20229;-26
2023/04/25 05:30:47;;;;;;;3.57;2.30;;;;;;;20.77;51.47;96755.00;4928175;29;20210;-28
2023/04/25 05:33:14;;;;;;;3.30;2.37;;;;;;;20.77;51.33;96753.31;4928423;29;20212;-26
2023/04/25 05:35:41;;;;;;;2.97;2.70;;;;;;;20.75;50.17;96756.69;4930716;29;20233;-26
2023/04/25 05:38:07;;;;;;;2.70;2.50;;;;;;;20.75;49.56;96752.41;4932493;29;20230;-28
2023/04/25 05:40:34;;;;;;;2.70;2.50;;;;;;;20.73;49.57;96751.53;4907772;29;20202;-27
2023/04/25 05:43:01;;;;;;;4.17;2.80;;;;;;;20.73;48.82;96754.09;4917108;29;20240;-26
2023/04/25 05:45:27;;;;;;;3.87;2.73;;;;;;;20.73;49.68;96758.34;4919658;29;20202;-26
2023/04/25 05:47:54;;;;;;;4.37;2.30;;;;;;;20.70;49.69;96750.59;4917308;29;20369;-26
2023/04/25 05:50:21;;;;;;;2.97;2.50;;;;;;;20.71;49.64;96749.78;4920157;29;20206;-28
2023/04/25 05:52:47;;;;;;;2.83;2.40;;;;;;;20.70;50.44;96758.28;4922309;29;20230;-26
2023/04/25 05:55:14;;;;;;;4.00;2.63;;;;;;;20.71;50.52;96752.31;4921875;29;20212;-26
2023/04/25 05:57:42;;;;;;;3.57;2.70;;;;;;;20.49;51.12;96714.44;4916753;29;20202;-30
2023/04/25 06:00:09;;;;;;;3.07;2.60;;;;;;;20.70;51.16;96746.38;4921150;29;20234;-35
2023/04/25 06:02:36;;;;;;;4.80;2.57;;;;;;;20.70;51.26;96753.16;4923441;29;20202;-32
2023/04/25 06:05:03;;;;;;;2.67;2.47;;;;;;;20.70;51.49;96759.16;4921828;29;20209;-26
2023/04/25 06:07:30;;;;;;;3.10;2.63;;;;;;;20.70;51.66;96761.69;4919220;29;20208;-26
2023/04/25 06:09:57;;;;;;;12.07;2.47;;;;;;;20.71;51.52;96758.31;4919151;29;20312;-26
2023/04/25 06:12:23;;;;;;;3.53;2.97;;;;;;;20.70;51.05;96751.47;4920774;29;20705;-26
2023/04/25 06:14:50;;;;;;;4.83;2.97;;;;;;;20.70;50.26;96754.03;4918781;29;20253;-26
2023/04/25 06:17:16;;;;;;;6.23;3.20;;;;;;;20.69;50.01;96757.41;4916798;29;20249;-26
2023/04/25 06:19:43;;;;;;;7.73;3.10;;;;;;;20.69;49.42;96752.28;4924418;29;20235;-26
2023/04/25 06:22:09;;;;;;;3.43;2.83;;;;;;;20.70;50.02;96760.81;4917212;29;20209;-28
2023/04/25 06:24:36;;;;;;;4.67;2.50;;;;;;;20.68;50.07;96748.03;4925211;29;20305;-26
2023/04/25 06:27:03;;;;;;;8.67;2.80;;;;;;;20.69;50.29;96761.66;4918478;29;20240;-27
2023/04/25 06:29:29;;;;;;;3.57;2.80;;;;;;;20.69;50.59;96754.00;4920608;29;20672;-26
2023/04/25 06:31:56;;;;;;;6.53;3.10;;;;;;;20.69;50.92;96757.41;4923325;29;20780;-26
2023/04/25 06:34:23;;;;;;;2.83;2.53;;;;;;;20.66;50.98;96752.22;4921691;29;20296;-26
2023/04/25 06:36:50;;;;;;;3.73;2.77;;;;;;;20.69;51.00;96756.56;4924179;29;20767;-26
2023/04/25 06:39:17;;;;;;;3.50;2.57;;;;;;;20.69;51.15;96759.13;4916385;29;20320;-27
2023/04/25 06:41:43;;;;;;;6.10;2.70;;;;;;;20.70;51.27;96761.69;4920390;29;20197;-31
2023/04/25 06:44:10;;;;;;;3.57;2.80;;;;;;;20.70;50.87;96755.72;4921558;29;20305;-26
2023/04/25 06:46:37;;;;;;;2.70;2.50;;;;;;;20.69;50.41;96751.44;4921323;29;20197;-26
2023/04/25 06:49:04;;;;;;;3.47;2.90;;;;;;;20.70;50.69;96758.28;4918361;29;20221;-26
2023/04/25 06:51:31;;;;;;;3.63;2.80;;;;;;;20.70;50.88;96748.06;4921249;29;20288;-29
2023/04/25 06:53:57;;;;;;;3.27;2.80;;;;;;;20.70;51.16;96754.03;4923224;29;20217;-31
2023/04/25 06:56:24;;;;;;;3.97;2.50;;;;;;;20.70;51.10;96759.16;4920039;29;20202;-26
2023/04/25 06:58:51;;;;;;;2.77;2.57;;;;;;;20.71;51.29;96759.97;4918268;29;20236;-26
2023/04/25 07:01:18;;;;;;;6.73;2.50;;;;;;;20.71;51.26;96760.84;4919707;29;20291;-29
2023/04/25 07:03:44;;;;;;;3.27;2.80;;;;;;;20.70;51.13;96761.69;4918450;29;20607;-26
2023/04/25 07:06:11;;;;;;;4.70;2.57;;;;;;;20.70;51.82;96756.59;4923449;29;20205;-26
2023/04/25 07:08:38;;;;;;;3.07;2.63;;;;;;;20.71;51.14;96759.97;4919510;29;20272;-28
2023/04/25 07:11:04;;;;;;;3.10;2.43;;;;;;;20.71;51.37;96753.19;4919931;29;20293;-28
2023/04/25 07:13:31;;;;;;;4.40;2.40;;;;;;;20.72;51.58;96754.06;4917243;29;20212;-26
2023/04/25 07:15:57;;;;;;;2.73;2.37;;;;;;;20.72;51.63;96759.16;4924790;29;20223;-26
2023/04/25 07:18:24;;;;;;;2.50;2.30;;;;;;;20.71;51.67;96758.31;4915734;29;20233;-26
2023/04/25 07:20:50;;;;;;;2.83;2.50;;;;;;;20.72;51.25;96759.16;4918847;29;20680;-27
2023/04/25 07:23:17;;;;;;;2.57;2.20;;;;;;;20.71;51.79;96747.22;4923833;29;20198;-26
2023/04/25 07:25:43;;;;;;;3.47;2.40;;;;;;;20.72;51.69;96751.50;4920597;29;20201;-26
2023/04/25 07:28:10;;;;;;;3.13;2.40;;;;;;;20.71;51.83;96750.66;4921440;29;20240;-26
2023/04/25 07:30:37;;;;;;;5.67;2.40;;;;;;;20.72;51.96;96751.50;4917091;29;20289;-28
2023/04/25 07:33:03;;;;;;;5.73;2.50;;;;;;;20.72;51.61;96743.84;4919580;29;20211;-29
2023/04/25 07:35:30;;;;;;;3.30;2.30;;;;;;;20.71;51.70;96740.44;4919437;29;20268;-31
2023/04/25 07:37:56;;;;;;;3.70;2.70;;;;;;;20.71;52.03;96744.66;4919342;29;20206;-26
2023/04/25 07:40:23;;;;;;;3.03;2.27;;;;;;;20.71;51.53;96750.66;4919019;29;20222;-26
2023/04/25 07:42:50;;;;;;;6.23;2.47;;;;;;;20.71;51.89;96742.13;4923018;29;20201;-28
2023/04/25 07:45:16;;;;;;;4.53;2.37;;;;;;;20.72;51.95;96741.31;4927979;29;20291;-26
2023/04/25 07:47:43;;;;;;;2.10;1.90;;;;;;;20.71;52.31;96742.13;4922126;29;20723;-26
2023/04/25 07:50:10;;;;;;;2.47;2.00;;;;;;;20.70;52.01;96743.81;4917902;29;20201;-30
2023/04/25 07:52:37;;;;;;;3.33;2.33;;;;;;;20.71;52.00;96752.31;4901360;29;20202;-26
2023/04/25 07:55:04;;;;;;;3.77;2.27;;;;;;;20.70;51.99;96740.41;4922233;29;20201;-26
2023/04/25 07:57:31;;;;;;;1.90;1.80;;;;;;;20.71;51.56;96749.78;4920194;29;20214;-26
2023/04/25 07:59:57;;;;;;;2.47;1.97;;;;;;;20.71;51.98;96757.44;4921574;29;20225;-26
2023/04/25 08:02:25;;;;;;;2.70;2.17;;;;;;;20.71;52.19;96747.22;4919278;29;20201;-26
2023/04/25 08:04:52;;;;;;;2.30;1.90;;;;;;;20.70;51.96;96754.03;4918921;29;20555;-26
2023/04/25 08:07:19;;;;;;;3.40;2.23;;;;;;;20.71;51.90;96749.78;4920917;29;20629;-26
2023/04/25 08:09:46;;;;;;;3.77;2.00;;;;;;;20.71;52.07;96757.44;4917481;29;20244;-29
2023/04/25 08:12:12;;;;;;;2.13;1.90;;;;;;;20.70;52.13;96748.94;4925351;29;20323;-26
2023/04/25 08:14:39;;;;;;;3.40;1.90;;;;;;;20.70;52.14;96755.72;4922604;29;20289;-26
2023/04/25 08:17:06;;;;;;;2.20;2.00;;;;;;;20.70;51.91;96756.59;4925259;29;20237;-26
2023/04/25 08:19:32;;;;;;;2.43;2.00;;;;;;;20.71;52.19;96749.78;4925823;29;20735;-26
2023/04/25 08:21:59;;;;;;;2.67;2.10;;;;;;;20.70;51.45;96750.59;4928146;29;20201;-26
2023/04/25 08:24:25;;;;;;;2.97;2.30;;;;;;;20.70;51.98;96751.47;4920229;29;20202;-28
2023/04/25 08:26:52;;;;;;;2.23;2.03;;;;;;;20.70;52.18;96753.16;4921298;29;20601;-27
2023/04/25 08:29:19;;;;;;;2.17;1.87;;;;;;;20.71;52.13;96749.78;4915067;29;20320;-28
2023/04/25 08:31:45;;;;;;;2.00;1.90;;;;;;;20.70;52.39;96750.59;4918140;29;20206;-26
2023/04/25 08:34:12;;;;;;;2.70;1.73;;;;;;;20.70;52.59;96748.06;4915086;29;20221;-26
2023/04/25 08:36:39;;;;;;;2.63;2.17;;;;;;;20.70;51.74;96750.59;4921630;29;20681;-27
2023/04/25 08:39:06;;;;;;;2.03;1.83;;;;;;;20.70;52.22;96760.81;4921320;29;20225;-26
2023/04/25 08:41:33;;;;;;;3.00;1.90;;;;;;;20.70;52.55;96761.69;4929638;29;20212;-26
2023/04/25 08:44:00;;;;;;;3.23;1.90;;;;;;;20.70;52.14;96760.81;4918480;29;20221;-26
2023/04/25 08:46:26;;;;;;;2.20;1.93;;;;;;;20.57;52.35;96739.28;4906413;29;20206;-29
2023/04/25 08:48:53;;;;;;;2.17;1.90;;;;;;;20.70;52.13;96764.25;4907061;29;20267;-26
2023/04/25 08:51:27;;;;;;;2.47;2.00;;;;;;;20.71;52.33;96767.66;4919395;29;20253;-29
2023/04/25 08:53:54;;;;;;;1.93;1.77;;;;;;;20.57;51.98;96746.09;4920290;29;20197;-26
2023/04/25 08:56:27;;;;;;;3.40;2.20;;;;;;;20.55;52.05;96747.75;4906655;29;20237;-32
2023/04/25 08:58:55;;;;;;;2.53;2.00;;;;;;;20.58;51.76;96753.78;4906220;29;20848;-28
2023/04/25 09:01:21;;;;;;;4.63;2.00;;;;;;;20.56;51.95;96755.44;4926081;29;20259;-30
2023/04/25 09:03:48;;;;;;;2.60;2.20;;;;;;;20.69;52.40;96777.81;4909592;29;20217;-26
2023/04/25 09:06:16;;;;;;;5.13;2.10;;;;;;;20.68;52.05;96781.22;4907587;29;20591;-26
2023/04/25 09:08:43;;;;;;;2.40;1.90;;;;;;;20.69;52.16;96775.28;4904155;29;20585;-26
2023/04/25 09:11:10;;;;;;;2.00;1.80;;;;;;;20.68;52.24;96775.25;4923234;29;20205;-33
2023/04/25 09:13:36;;;;;;;3.27;1.90;;;;;;;20.64;52.69;96766.69;4913995;29;20198;-27
2023/04/25 09:16:03;;;;;;;9.93;2.03;;;;;;;20.67;52.36;96771.84;4920043;29;20304;-26
2023/04/25 09:18:31;;;;;;;2.87;2.17;;;;;;;20.66;51.66;96776.91;4927685;29;20221;-26
2023/04/25 09:21:05;;;;;;;2.97;2.07;;;;;;;20.66;51.65;96782.88;4923535;29;20324;-26
2023/04/25 09:23:49;;;;;;;5.43;2.47;;;;;;;20.66;51.60;96780.31;4927029;29;20201;-26
2023/04/25 09:26:18;;;;;;;2.40;2.10;;;;;;;20.65;51.78;96793.91;4931476;29;20248;-29
2023/04/25 09:28:45;;;;;;;3.23;2.13;;;;;;;20.67;52.07;96811.81;4932495;29;20236;-30
2023/04/25 09:31:12;;;;;;;3.23;2.10;;;;;;;20.66;52.48;96822.88;4926272;29;20549;-26
2023/04/25 09:33:40;;;;;;;2.20;2.00;;;;;;;20.65;52.31;96827.09;4926736;29;20220;-28
2023/04/25 09:36:08;;;;;;;3.50;1.90;;;;;;;20.66;51.99;96822.88;4923759;29;20206;-28
2023/04/25 09:38:42;;;;;;;1.90;1.80;;;;;;;20.66;52.19;96828.81;4922505;29;20228;-26
2023/04/25 09:41:09;;;;;;;1.90;1.80;;;;;;;20.65;52.25;96839.88;4927845;29;20221;-32
2023/04/25 09:43:36;;;;;;;2.03;1.90;;;;;;;20.65;52.12;96842.44;4927731;29;20208;-26
2023/04/25 09:46:04;;;;;;;2.17;1.97;;;;;;;20.67;52.18;96839.91;4928785;29;20209;-26
2023/04/25 09:48:31;;;;;;;2.17;1.97;;;;;;;20.67;52.37;96842.47;4908171;29;20575;-26
2023/04/25 09:51:16;;;;;;;2.30;2.10;;;;;;;20.65;52.36;96839.88;4925740;29;20210;-26
2023/04/25 09:53:46;;;;;;;2.40;2.00;;;;;;;20.65;52.20;96839.88;4928613;29;20232;-29
2023/04/25 09:56:13;;;;;;;1.80;1.70;;;;;;;20.66;52.42;96843.31;4925584;29;20276;-26
2023/04/25 09:58:40;;;;;;;2.40;1.93;;;;;;;20.65;52.30;96834.78;4921393;29;20631;-26
2023/04/25 10:01:08;;;;;;;1.90;1.80;;;;;;;20.56;52.30;96821.81;4918926;29;20265;-33
2023/04/25 10:03:36;;;;;;;1.80;1.70;;;;;;;20.66;52.27;96835.63;4922611;29;20198;-26
2023/04/25 10:06:04;;;;;;;1.77;1.67;;;;;;;20.65;52.34;96842.44;4922878;29;20205;-26
2023/04/25 10:08:33;;;;;;;2.77;1.90;;;;;;;20.66;52.30;96835.63;4904907;29;20221;-26
2023/04/25 10:11:00;;;;;;;2.20;2.00;;;;;;;20.66;52.33;96841.59;4925963;29;20204;-27
2023/04/25 10:13:28;;;;;;;3.90;1.83;;;;;;;20.49;52.41;96817.38;4927848;29;20300;-26
2023/04/25 10:15:55;;;;;;;2.73;2.00;;;;;;;20.65;52.25;96834.78;4903814;29;20202;-27
2023/04/25 10:18:21;;;;;;;2.00;1.90;;;;;;;20.66;52.44;96850.97;4908004;29;20243;-28
2023/04/25 10:20:48;;;;;;;2.97;1.93;;;;;;;20.66;52.77;96840.75;4920334;29;20232;-26
2023/04/25 10:23:15;;;;;;;1.90;1.70;;;;;;;20.62;52.40;96836.38;4907589;29;20660;-32
2023/04/25 10:25:41;;;;;;;2.30;1.80;;;;;;;20.66;52.53;96851.81;4921914;29;20201;-29
2023/04/25 10:28:08;;;;;;;2.43;1.90;;;;;;;20.66;52.44;96849.25;4919262;29;20696;-27
2023/04/25 10:30:34;;;;;;;2.20;2.00;;;;;;;20.66;52.19;96867.13;4916540;29;20209;-26
2023/04/25 10:33:01;;;;;;;1.83;1.73;;;;;;;20.66;52.58;96867.13;4938726;29;20241;-29
2023/04/25 10:35:29;;;;;;;2.37;2.03;;;;;;;20.66;52.63;96869.66;4919818;29;20206;-26
2023/04/25 10:38:04;;;;;;;1.80;1.70;;;;;;;20.67;52.63;96871.41;4918769;29;20240;-27
2023/04/25 10:40:33;;;;;;;3.00;1.70;;;;;;;20.67;52.61;96870.53;4927647;29;20229;-26
2023/04/25 10:43:31;;;;;;;1.60;1.50;;;;;;;20.67;52.37;96862.88;4916491;29;20217;-26
2023/04/25 10:46:01;;;;;;;1.80;1.70;;;;;;;20.66;52.50;96856.91;4916664;29;20237;-26
2023/04/25 10:48:28;;;;;;;1.80;1.70;;;;;;;20.67;52.46;96857.78;4925931;29;20221;-33
2023/04/25 10:51:10;;;;;;;5.37;1.87;;;;;;;20.65;52.51;96855.19;4927809;29;20198;-26
2023/04/25 10:53:37;;;;;;;1.97;1.87;;;;;;;20.66;52.55;96856.06;4917509;29;20236;-26
2023/04/25 10:56:35;;;;;;;1.80;1.70;;;;;;;20.65;52.39;96857.75;4918103;29;20296;-26
2023/04/25 10:59:10;;;;;;;1.90;1.70;;;;;;;20.65;52.63;96862.84;4921438;29;20232;-26
2023/04/25 11:01:43;;;;;;;1.70;1.60;;;;;;;20.65;52.25;96847.53;4902775;29;20304;-28
2023/04/25 11:04:23;;;;;;;1.80;1.70;;;;;;;20.66;52.54;96858.63;4918077;29;20225;-26
2023/04/25 11:07:04;;;;;;;1.70;1.60;;;;;;;20.65;52.30;96857.75;4921979;29;20579;-26
2023/04/25 11:09:34;;;;;;;1.70;1.60;;;;;;;20.65;52.55;96854.31;4914324;29;20222;-30
2023/04/25 11:12:00;;;;;;;2.10;1.77;;;;;;;20.65;52.29;96849.22;4924928;29;20601;-26
2023/04/25 11:14:27;;;;;;;1.93;1.60;;;;;;;20.65;52.48;96851.75;4920934;29;20260;-26
2023/04/25 11:16:55;;;;;;;2.87;2.00;;;;;;;20.64;52.51;96843.28;4928060;29;20703;-32
2023/04/25 11:19:25;;;;;;;3.30;1.73;;;;;;;20.65;52.53;96839.88;4917261;29;20291;-26
2023/04/25 11:21:56;;;;;;;1.93;1.40;;;;;;;20.65;52.63;96841.56;4920182;29;20758;-30
2023/04/25 11:24:29;;;;;;;1.70;1.60;;;;;;;20.65;52.69;96842.44;4924409;29;20675;-28
2023/04/25 11:26:56;;;;;;;1.50;1.40;;;;;;;20.65;52.75;96841.56;4919042;29;20233;-26
2023/04/25 11:29:23;;;;;;;1.60;1.50;;;;;;;20.65;52.47;96841.56;4933568;23;20228;-33
2023/04/25 11:31:50;;;;;;;1.50;1.40;;;;;;;20.65;52.54;96846.66;4965544;28;20201;-30
2023/04/25 11:34:18;;;;;;;1.80;1.70;;;;;;;20.61;52.68;96840.66;4950145;28;20625;-30
2023/04/25 11:36:45;;;;;;;1.60;1.50;;;;;;;20.65;52.51;96846.66;4944251;28;20204;-30
2023/04/25 11:39:12;;;;;;;1.70;1.60;;;;;;;20.65;52.56;96839.88;4955080;28;20275;-29